This is the latest recevied weather packets stored in our database for station/object KE2A-13. If no packets are shown the sender has not sent any weather packets the latest 10 day(s).
| Time | Temp. | Humidity | Pressure | Rain* | Wind** | Luminosity | Snow |
|---|---|---|---|---|---|---|---|
| 1777986000 | 17.22° C | 74% | 1010.4 hPa | 1.27 mm | - | - | - |
| 1777985100 | 16.11° C | 82% | 1010.5 hPa | 1.27 mm | - | - | - |
| 1777984200 | 14.44° C | 91% | 1010.7 hPa | 1.27 mm | - | - | - |
| 1777983300 | 13.33° C | 93% | 1010.6 hPa | 1.52 mm | - | - | - |
| 1777982400 | 13.33° C | 91% | 1010.1 hPa | 1.52 mm | - | - | - |
| 1777981500 | 13.89° C | 85% | 1010.1 hPa | 1.27 mm | - | - | - |
| 1777980600 | 15° C | 77% | 1011.2 hPa | - | - | - | - |
| 1777979700 | 14.44° C | 78% | 1011 hPa | - | - | - | - |
| 1777978800 | 13.89° C | 81% | 1011 hPa | - | - | - | - |
| 1777977900 | 13.33° C | 82% | 1010.9 hPa | - | - | - | - |
| 1777977000 | 13.33° C | 80% | 1010.8 hPa | - | - | - | - |
| 1777976100 | 13.33° C | 80% | 1010.5 hPa | - | - | - | - |
| 1777975200 | 13.33° C | 78% | 1010.3 hPa | - | - | - | - |
| 1777974300 | 13.33° C | 78% | 1010 hPa | - | - | - | - |
| 1777973400 | 14.44° C | 74% | 1009.9 hPa | - | - | - | - |
| 1777972500 | 14.44° C | 74% | 1009.7 hPa | - | - | - | - |
| 1777971600 | 13.89° C | 74% | 1009.7 hPa | - | - | - | - |
| 1777970700 | 13.89° C | 73% | 1009.7 hPa | - | - | - | - |
| 1777969800 | 13.89° C | 74% | 1009.9 hPa | - | - | - | - |
| 1777968900 | 13.33° C | 76% | 1009.8 hPa | - | - | - | - |
| 1777968000 | 11.67° C | 81% | 1010 hPa | - | - | - | - |
| 1777967100 | 10.56° C | 89% | 1010 hPa | - | - | - | - |
| 1777966200 | 10.56° C | 89% | 1009.8 hPa | - | - | - | - |
| 1777965300 | 10.56° C | 89% | 1009.9 hPa | - | - | - | - |
| 1777964400 | 10° C | 89% | 1009.7 hPa | - | - | - | - |
* Rain since midnight (hover to see other rain measurements)
** Current wind speed in m/s (hover to see current wind gust speed)